createdAt,value
2022-10-31T00:00:16.882Z,393.70
2022-10-31T00:01:16.810Z,412.70
2022-10-31T00:02:16.853Z,406.90
2022-10-31T00:03:16.757Z,417.70
2022-10-31T00:04:16.719Z,409.40
2022-10-31T00:05:16.703Z,413.80
2022-10-31T00:06:16.747Z,399.10
2022-10-31T00:07:16.685Z,375.90
2022-10-31T00:08:16.690Z,363.30
2022-10-31T00:09:16.676Z,365.90
2022-10-31T00:10:16.703Z,390.40
2022-10-31T00:11:16.697Z,412.60
2022-10-31T00:12:16.666Z,416.50
2022-10-31T00:13:16.711Z,421.80
2022-10-31T00:14:16.674Z,419.80
2022-10-31T00:15:16.643Z,414.50
2022-10-31T00:16:16.640Z,402.20
2022-10-31T00:17:16.585Z,408.10
2022-10-31T00:18:16.566Z,398.50
2022-10-31T00:19:16.557Z,405.60
2022-10-31T00:20:16.541Z,405.90
2022-10-31T00:21:16.586Z,406.50
2022-10-31T00:22:16.530Z,394.10
2022-10-31T00:23:16.517Z,391.60
2022-10-31T00:24:16.540Z,406.30
2022-10-31T00:25:16.502Z,401.70
2022-10-31T00:26:16.540Z,398.70
2022-10-31T00:27:16.495Z,409.50
2022-10-31T00:28:16.559Z,422.30
2022-10-31T00:29:16.474Z,421.10
2022-10-31T00:30:16.445Z,420.40
2022-10-31T00:31:16.471Z,418.60
2022-10-31T00:32:16.446Z,408.30
2022-10-31T00:33:16.397Z,417.30
2022-10-31T00:34:16.423Z,419.00
2022-10-31T00:35:16.372Z,415.10
2022-10-31T00:36:16.427Z,415.70
2022-10-31T00:37:16.359Z,408.10
2022-10-31T00:38:16.381Z,406.50
2022-10-31T00:39:16.343Z,404.80
2022-10-31T00:40:16.315Z,406.20
2022-10-31T00:41:16.344Z,406.30
2022-10-31T00:42:16.298Z,392.10
2022-10-31T00:43:16.303Z,391.70
2022-10-31T00:44:16.294Z,395.70
2022-10-31T00:45:16.288Z,418.20
2022-10-31T00:46:16.313Z,423.90
2022-10-31T00:47:16.255Z,430.90
2022-10-31T00:48:16.245Z,427.70
2022-10-31T00:49:16.225Z,429.30
2022-10-31T00:50:16.235Z,426.40
2022-10-31T00:51:16.247Z,424.70
2022-10-31T00:52:16.201Z,427.60
2022-10-31T00:53:16.191Z,404.80
2022-10-31T00:54:16.185Z,383.40
2022-10-31T00:55:16.158Z,366.40
2022-10-31T00:56:16.196Z,363.90
2022-10-31T00:57:16.155Z,378.50
2022-10-31T00:58:16.156Z,394.90
2022-10-31T00:59:16.130Z,406.60
2022-10-31T01:00:16.130Z,412.60
2022-10-31T01:01:16.253Z,403.20
2022-10-31T01:02:16.216Z,373.90
2022-10-31T01:03:16.084Z,352.10
2022-10-31T01:04:16.065Z,356.20
2022-10-31T01:05:16.061Z,354.10
2022-10-31T01:06:16.090Z,347.40
2022-10-31T01:07:16.021Z,354.80
2022-10-31T01:08:16.029Z,352.00
2022-10-31T01:09:16.009Z,349.60
2022-10-31T01:10:16.004Z,356.00
2022-10-31T01:11:16.019Z,372.90
2022-10-31T01:12:15.985Z,394.60
2022-10-31T01:13:15.972Z,395.10
2022-10-31T01:14:15.971Z,382.00
2022-10-31T01:15:15.934Z,390.50
2022-10-31T01:16:15.948Z,407.00
2022-10-31T01:17:15.905Z,394.00
2022-10-31T01:18:15.894Z,400.20
2022-10-31T01:19:15.881Z,377.70
2022-10-31T01:20:15.890Z,373.50
2022-10-31T01:21:15.912Z,363.00
2022-10-31T01:22:15.859Z,358.20
2022-10-31T01:23:15.869Z,354.70
2022-10-31T01:24:15.856Z,360.90
2022-10-31T01:25:15.821Z,366.00
2022-10-31T01:26:15.830Z,354.80
2022-10-31T01:27:15.837Z,377.80
2022-10-31T01:28:15.868Z,416.50
2022-10-31T01:29:15.787Z,414.30
2022-10-31T01:30:15.786Z,411.50
2022-10-31T01:31:15.811Z,406.60
2022-10-31T01:32:15.762Z,397.20
2022-10-31T01:33:15.741Z,408.50
2022-10-31T01:34:15.751Z,408.50
2022-10-31T01:35:15.720Z,410.00
2022-10-31T01:36:15.761Z,417.40
2022-10-31T01:37:15.701Z,410.60
2022-10-31T01:38:15.680Z,423.40
2022-10-31T01:39:15.682Z,419.50
2022-10-31T01:40:15.662Z,413.70
2022-10-31T01:41:15.679Z,412.50
2022-10-31T01:42:15.634Z,423.10
2022-10-31T01:43:15.701Z,424.80
2022-10-31T01:44:15.636Z,399.80
2022-10-31T01:45:15.623Z,413.10
2022-10-31T01:46:15.650Z,421.20
2022-10-31T01:47:15.575Z,422.40
2022-10-31T01:48:15.581Z,422.10
2022-10-31T01:49:15.566Z,432.30
2022-10-31T01:50:15.558Z,433.80
2022-10-31T01:51:15.600Z,428.00
2022-10-31T01:52:15.545Z,394.80
2022-10-31T01:53:15.510Z,396.60
2022-10-31T01:54:15.488Z,417.40
2022-10-31T01:55:15.490Z,416.70
2022-10-31T01:56:15.529Z,416.30
2022-10-31T01:57:15.496Z,425.20
2022-10-31T01:58:15.497Z,417.90
2022-10-31T01:59:15.465Z,413.50
2022-10-31T02:00:15.460Z,428.00
2022-10-31T02:01:15.560Z,423.70
2022-10-31T02:02:15.622Z,422.80
2022-10-31T02:03:15.409Z,425.80
2022-10-31T02:04:15.397Z,424.40
2022-10-31T02:05:15.395Z,424.90
2022-10-31T02:06:15.401Z,420.20
2022-10-31T02:07:15.368Z,421.00
2022-10-31T02:08:15.336Z,420.40
2022-10-31T02:09:15.346Z,422.80
2022-10-31T02:10:15.339Z,424.70
2022-10-31T02:11:15.330Z,403.00
2022-10-31T02:12:15.346Z,405.30
2022-10-31T02:13:15.400Z,408.00
2022-10-31T02:14:15.281Z,383.50
2022-10-31T02:15:15.290Z,372.00
2022-10-31T02:16:15.270Z,407.10
2022-10-31T02:17:15.282Z,424.90
2022-10-31T02:18:15.241Z,433.10
2022-10-31T02:19:15.230Z,435.30
2022-10-31T02:20:15.215Z,541.00
2022-10-31T02:21:15.242Z,405.50
2022-10-31T02:22:15.197Z,420.30
2022-10-31T02:23:15.190Z,430.00
2022-10-31T02:24:15.185Z,425.10
2022-10-31T02:25:15.170Z,411.60
2022-10-31T02:26:15.181Z,396.20
2022-10-31T02:27:15.140Z,383.40
2022-10-31T02:28:15.171Z,388.30
2022-10-31T02:29:15.107Z,387.70
2022-10-31T02:30:15.087Z,370.70
2022-10-31T02:31:15.118Z,376.30
2022-10-31T02:32:15.101Z,374.70
2022-10-31T02:33:15.083Z,369.60
2022-10-31T02:34:15.071Z,432.30
2022-10-31T02:35:15.061Z,549.60
2022-10-31T02:36:15.060Z,513.70
2022-10-31T02:37:15.026Z,414.50
2022-10-31T02:38:15.026Z,360.50
2022-10-31T02:39:15.010Z,570.90
2022-10-31T02:40:15.005Z,507.70
2022-10-31T02:41:15.024Z,404.20
2022-10-31T02:42:14.979Z,370.00
2022-10-31T02:44:14.947Z,348.80
2022-10-31T02:45:14.949Z,366.10
2022-10-31T02:46:14.963Z,385.20
2022-10-31T02:47:14.925Z,385.20
2022-10-31T02:48:14.905Z,376.80
2022-10-31T02:49:14.907Z,351.30
2022-10-31T02:50:14.882Z,353.60
2022-10-31T02:51:14.916Z,342.10
2022-10-31T02:52:14.882Z,342.90
2022-10-31T02:53:14.855Z,374.70
2022-10-31T02:54:14.842Z,490.10
2022-10-31T02:55:14.828Z,546.40
2022-10-31T02:56:14.845Z,507.20
2022-10-31T02:57:14.800Z,462.50
2022-10-31T02:58:14.846Z,431.80
2022-10-31T02:59:14.781Z,409.60
2022-10-31T03:00:14.789Z,406.90
2022-10-31T03:01:14.895Z,406.00
2022-10-31T03:02:14.835Z,419.30
2022-10-31T03:03:14.745Z,435.00
2022-10-31T03:04:14.720Z,412.70
2022-10-31T03:05:14.702Z,358.80
2022-10-31T03:06:14.718Z,440.70
2022-10-31T03:07:14.682Z,391.70
2022-10-31T03:08:14.662Z,463.40
2022-10-31T03:09:14.664Z,442.00
2022-10-31T03:10:14.643Z,495.10
2022-10-31T03:11:14.689Z,397.60
2022-10-31T03:12:14.645Z,404.90
2022-10-31T03:13:14.644Z,399.60
2022-10-31T03:14:14.601Z,425.20
2022-10-31T03:15:14.611Z,504.50
2022-10-31T03:16:14.619Z,392.70
2022-10-31T03:17:14.586Z,395.50
2022-10-31T03:18:14.588Z,420.80
2022-10-31T03:19:14.574Z,406.70
2022-10-31T03:20:14.535Z,408.40
2022-10-31T03:21:14.552Z,413.60
2022-10-31T03:22:14.516Z,408.60
2022-10-31T03:23:14.493Z,409.80
2022-10-31T03:24:14.507Z,394.30
2022-10-31T03:25:14.490Z,402.20
2022-10-31T03:26:14.485Z,407.50
2022-10-31T03:27:14.505Z,406.70
2022-10-31T03:28:14.472Z,416.70
2022-10-31T03:29:14.450Z,412.10
2022-10-31T03:30:14.422Z,420.60
2022-10-31T03:31:14.430Z,423.60
2022-10-31T03:32:14.444Z,420.50
2022-10-31T03:33:14.404Z,417.00
2022-10-31T03:34:14.386Z,425.60
2022-10-31T03:35:14.372Z,532.90
2022-10-31T03:36:14.361Z,447.80
2022-10-31T03:37:14.387Z,414.20
2022-10-31T03:38:14.326Z,395.00
2022-10-31T03:39:14.314Z,405.10
2022-10-31T03:40:14.302Z,421.10
2022-10-31T03:41:14.296Z,426.60
2022-10-31T03:42:14.300Z,432.40
2022-10-31T03:43:14.295Z,422.20
2022-10-31T03:44:14.259Z,425.10
2022-10-31T03:45:14.241Z,396.90
2022-10-31T03:46:14.228Z,390.60
2022-10-31T03:47:14.262Z,556.60
2022-10-31T03:48:14.213Z,497.70
2022-10-31T03:49:14.210Z,440.90
2022-10-31T03:50:14.184Z,549.30
2022-10-31T03:51:14.188Z,458.30
2022-10-31T03:52:14.193Z,436.70
2022-10-31T03:53:14.150Z,457.80
2022-10-31T03:54:14.139Z,490.20
2022-10-31T03:55:14.143Z,433.40
2022-10-31T03:56:14.162Z,488.30
2022-10-31T03:57:14.143Z,415.00
2022-10-31T03:58:14.171Z,426.50
2022-10-31T03:59:14.090Z,448.90
2022-10-31T04:00:14.074Z,492.70
2022-10-31T04:01:14.171Z,425.30
2022-10-31T04:02:14.185Z,383.40
2022-10-31T04:03:14.044Z,445.40
2022-10-31T04:04:14.024Z,448.80
2022-10-31T04:05:14.035Z,459.70
2022-10-31T04:06:13.996Z,464.90
2022-10-31T04:07:14.030Z,486.20
2022-10-31T04:08:13.984Z,424.70
2022-10-31T04:09:13.970Z,467.70
2022-10-31T04:10:13.953Z,430.30
2022-10-31T04:11:13.970Z,468.40
2022-10-31T04:12:13.976Z,411.80
2022-10-31T04:13:13.974Z,470.90
2022-10-31T04:14:13.921Z,498.80
2022-10-31T04:15:13.906Z,413.20
2022-10-31T04:16:16.952Z,366.40
2022-10-31T04:17:13.921Z,419.40
2022-10-31T04:18:13.872Z,440.40
2022-10-31T04:19:13.862Z,415.80
2022-10-31T04:20:13.855Z,461.50
2022-10-31T04:21:13.827Z,400.70
2022-10-31T04:22:13.848Z,416.70
2022-10-31T04:23:14.738Z,385.00
2022-10-31T04:24:13.790Z,445.00
2022-10-31T04:25:13.783Z,447.40
2022-10-31T04:26:13.787Z,455.60
2022-10-31T04:27:13.799Z,405.40
2022-10-31T04:28:13.812Z,398.40
2022-10-31T04:29:13.753Z,363.60
2022-10-31T04:30:13.729Z,451.40
2022-10-31T04:31:13.716Z,393.30
2022-10-31T04:32:13.742Z,437.30
2022-10-31T04:33:13.711Z,378.00
2022-10-31T04:34:13.715Z,391.40
2022-10-31T04:35:13.677Z,443.30
2022-10-31T04:36:13.665Z,435.90
2022-10-31T04:37:13.694Z,398.90
2022-10-31T04:38:13.632Z,417.30
2022-10-31T04:39:13.637Z,379.60
2022-10-31T04:40:13.614Z,421.90
2022-10-31T04:41:13.618Z,339.40
2022-10-31T04:42:13.632Z,379.00
2022-10-31T04:43:13.627Z,431.80
2022-10-31T04:44:13.575Z,418.80
2022-10-31T04:45:16.814Z,404.40
2022-10-31T04:46:14.544Z,361.70
2022-10-31T04:47:13.578Z,400.60
2022-10-31T04:48:13.524Z,350.00
2022-10-31T04:49:13.529Z,406.30
2022-10-31T04:50:13.503Z,427.40
2022-10-31T04:51:13.499Z,405.30
2022-10-31T04:52:13.511Z,391.30
2022-10-31T04:53:13.474Z,434.30
2022-10-31T04:54:13.464Z,471.60
2022-10-31T04:55:13.457Z,472.20
2022-10-31T04:56:13.434Z,393.90
2022-10-31T04:57:13.458Z,431.10
2022-10-31T04:58:13.461Z,419.80
2022-10-31T04:59:13.415Z,523.80
2022-10-31T05:00:13.389Z,510.90
2022-10-31T05:01:13.503Z,412.50
2022-10-31T05:02:13.673Z,497.00
2022-10-31T05:03:13.350Z,485.70
2022-10-31T05:04:13.351Z,556.90
2022-10-31T05:05:13.350Z,379.00
2022-10-31T05:06:13.327Z,443.30
2022-10-31T05:07:13.352Z,546.70
2022-10-31T05:08:13.289Z,395.70
2022-10-31T05:09:13.301Z,508.00
2022-10-31T05:10:13.272Z,462.20
2022-10-31T05:11:13.263Z,438.40
2022-10-31T05:12:13.282Z,516.80
2022-10-31T05:13:13.315Z,449.40
2022-10-31T05:14:13.233Z,442.20
2022-10-31T05:15:13.232Z,485.70
2022-10-31T05:16:13.211Z,402.60
2022-10-31T05:17:13.233Z,461.40
2022-10-31T05:18:13.179Z,378.80
2022-10-31T05:19:13.177Z,356.40
2022-10-31T05:20:13.194Z,370.10
2022-10-31T05:21:13.157Z,407.80
2022-10-31T05:22:18.301Z,374.70
2022-10-31T05:23:13.148Z,427.90
2022-10-31T05:24:13.134Z,376.20
2022-10-31T05:25:13.136Z,386.50
2022-10-31T05:26:13.108Z,440.60
2022-10-31T05:27:13.137Z,438.00
2022-10-31T05:28:13.091Z,377.70
2022-10-31T05:29:13.070Z,426.60
2022-10-31T05:30:13.079Z,432.10
2022-10-31T05:31:13.040Z,420.60
2022-10-31T05:32:13.071Z,462.60
2022-10-31T05:33:13.028Z,445.30
2022-10-31T05:34:13.027Z,439.30
2022-10-31T05:35:13.009Z,406.90
2022-10-31T05:36:12.995Z,384.00
2022-10-31T05:37:13.009Z,432.10
2022-10-31T05:38:12.973Z,451.30
2022-10-31T05:39:12.967Z,451.70
2022-10-31T05:40:12.955Z,464.40
2022-10-31T05:41:12.940Z,387.20
2022-10-31T05:42:12.979Z,380.50
2022-10-31T05:43:12.904Z,455.30
2022-10-31T05:44:12.922Z,385.80
2022-10-31T05:45:12.891Z,427.70
2022-10-31T05:46:12.891Z,426.60
2022-10-31T05:47:12.915Z,421.50
2022-10-31T05:48:12.872Z,449.80
2022-10-31T05:49:12.867Z,426.30
2022-10-31T05:50:12.845Z,426.20
2022-10-31T05:51:12.832Z,429.90
2022-10-31T05:52:12.841Z,389.40
2022-10-31T05:53:12.791Z,388.30
2022-10-31T05:54:15.871Z,362.20
2022-10-31T05:55:12.765Z,347.60
2022-10-31T05:56:12.764Z,331.50
2022-10-31T05:57:12.780Z,428.10
2022-10-31T05:58:12.756Z,407.60
2022-10-31T05:59:12.727Z,420.00
2022-10-31T06:00:12.737Z,311.40
2022-10-31T06:01:12.797Z,336.80
2022-10-31T06:02:12.730Z,400.80
2022-10-31T06:03:12.695Z,409.70
2022-10-31T06:04:12.727Z,378.80
2022-10-31T06:05:12.831Z,389.40
2022-10-31T06:06:12.648Z,394.00
2022-10-31T06:07:12.674Z,420.40
2022-10-31T06:08:12.646Z,344.50
2022-10-31T06:09:12.623Z,392.10
2022-10-31T06:10:12.608Z,356.90
2022-10-31T06:11:12.608Z,397.60
2022-10-31T06:12:12.584Z,367.40
2022-10-31T06:13:12.618Z,325.20
2022-10-31T06:14:12.570Z,372.70
2022-10-31T06:15:12.555Z,400.30
2022-10-31T06:16:12.554Z,334.70
2022-10-31T06:17:12.527Z,444.30
2022-10-31T06:18:12.551Z,345.20
2022-10-31T06:19:12.527Z,343.60
2022-10-31T06:20:12.518Z,388.90
2022-10-31T06:21:14.912Z,455.00
2022-10-31T06:22:13.464Z,333.90
2022-10-31T06:23:12.502Z,371.20
2022-10-31T06:24:12.442Z,451.00
2022-10-31T06:25:12.461Z,274.60
2022-10-31T06:26:12.433Z,105.90
2022-10-31T06:27:12.439Z,163.20
2022-10-31T06:28:12.424Z,179.20
2022-10-31T06:29:12.412Z,216.60
2022-10-31T06:30:12.379Z,229.80
2022-10-31T06:31:12.372Z,78.40
2022-10-31T06:32:12.395Z,308.10
2022-10-31T06:33:12.390Z,247.50
2022-10-31T06:34:12.355Z,299.60
2022-10-31T06:35:12.351Z,286.70
2022-10-31T06:36:12.317Z,97.80
2022-10-31T06:37:12.312Z,320.70
2022-10-31T06:38:12.334Z,69.50
2022-10-31T06:39:12.303Z,378.40
2022-10-31T06:40:12.268Z,93.40
2022-10-31T06:41:12.269Z,390.70
2022-10-31T06:42:12.264Z,165.60
2022-10-31T06:43:12.271Z,284.00
2022-10-31T06:44:12.223Z,319.20
2022-10-31T06:45:12.210Z,254.20
2022-10-31T06:46:12.211Z,356.40
2022-10-31T06:47:12.229Z,89.90
2022-10-31T06:48:17.050Z,382.20
2022-10-31T06:49:13.180Z,391.70
2022-10-31T06:50:12.171Z,379.40
2022-10-31T06:51:12.155Z,380.40
2022-10-31T06:52:12.152Z,196.80
2022-10-31T06:53:12.436Z,305.50
2022-10-31T06:54:12.109Z,430.40
2022-10-31T06:55:12.116Z,414.10
2022-10-31T06:56:12.092Z,337.40
2022-10-31T06:57:12.095Z,304.90
2022-10-31T06:58:12.105Z,148.80
2022-10-31T06:59:12.078Z,285.60
2022-10-31T07:00:12.044Z,117.70
2022-10-31T07:01:12.183Z,199.60
2022-10-31T07:02:12.103Z,186.30
2022-10-31T07:03:12.062Z,252.40
2022-10-31T07:04:12.016Z,288.60
2022-10-31T07:05:11.980Z,360.50
2022-10-31T07:06:11.958Z,325.10
2022-10-31T07:07:11.965Z,211.10
2022-10-31T07:08:11.994Z,131.60
2022-10-31T07:09:11.956Z,550.10
2022-10-31T07:11:11.942Z,239.10
2022-10-31T07:12:11.908Z,999.90
2022-10-31T07:13:11.941Z,999.90
2022-10-31T07:14:11.894Z,337.10
2022-10-31T07:15:11.895Z,999.90
2022-10-31T07:16:11.868Z,999.90
2022-10-31T07:17:11.850Z,999.90
2022-10-31T07:18:11.836Z,999.90
2022-10-31T07:19:11.880Z,999.90
2022-10-31T07:20:11.822Z,999.90
2022-10-31T07:21:11.814Z,999.90
2022-10-31T07:22:11.812Z,793.80
2022-10-31T07:23:11.803Z,999.90
2022-10-31T07:24:11.812Z,999.90
2022-10-31T07:25:11.766Z,999.90
2022-10-31T07:26:11.748Z,999.90
2022-10-31T07:27:11.779Z,999.90
2022-10-31T07:28:11.776Z,999.90
2022-10-31T07:29:11.709Z,999.90
2022-10-31T07:30:11.702Z,999.90
2022-10-31T07:31:11.721Z,999.90
2022-10-31T07:32:11.691Z,999.90
2022-10-31T07:33:11.723Z,999.90
2022-10-31T07:34:11.670Z,999.90
2022-10-31T07:35:11.655Z,999.90
2022-10-31T07:36:11.650Z,999.90
2022-10-31T07:37:11.640Z,999.90
2022-10-31T07:38:11.653Z,999.90
2022-10-31T07:39:11.619Z,999.90
2022-10-31T07:40:11.590Z,999.90
2022-10-31T07:41:11.571Z,999.90
2022-10-31T07:42:11.551Z,999.90
2022-10-31T07:43:14.020Z,999.90
2022-10-31T07:44:11.538Z,999.90
2022-10-31T07:45:11.535Z,999.90
2022-10-31T07:46:11.529Z,999.90
2022-10-31T07:47:11.503Z,999.90
2022-10-31T07:48:11.541Z,999.90
2022-10-31T07:49:11.499Z,999.90
2022-10-31T07:50:11.498Z,999.90
2022-10-31T07:51:11.471Z,999.90
2022-10-31T07:52:11.483Z,999.90
2022-10-31T07:53:11.459Z,999.90
2022-10-31T07:54:11.478Z,999.90
2022-10-31T07:55:11.435Z,999.90
2022-10-31T07:56:11.407Z,999.90
2022-10-31T07:57:11.411Z,999.90
2022-10-31T07:58:11.396Z,999.90
2022-10-31T07:59:11.434Z,999.90
2022-10-31T08:00:11.342Z,999.90
2022-10-31T08:02:11.350Z,999.90
2022-10-31T08:03:11.331Z,999.90
2022-10-31T08:04:11.360Z,999.90
2022-10-31T08:05:11.313Z,999.90
2022-10-31T08:06:11.318Z,999.90
2022-10-31T08:07:11.313Z,999.90
2022-10-31T08:08:11.261Z,999.90
2022-10-31T08:09:11.298Z,999.90
2022-10-31T08:10:11.244Z,999.90
2022-10-31T08:11:11.279Z,999.90
2022-10-31T08:12:11.238Z,999.90
2022-10-31T08:13:11.263Z,999.90
2022-10-31T08:14:11.260Z,999.90
2022-10-31T08:15:11.197Z,999.90
2022-10-31T08:16:11.177Z,999.90
2022-10-31T08:17:11.182Z,999.90
2022-10-31T08:18:11.157Z,999.90
2022-10-31T08:19:11.173Z,999.90
2022-10-31T08:20:11.143Z,999.90
2022-10-31T08:21:11.138Z,999.90
2022-10-31T08:22:11.103Z,999.90
2022-10-31T08:23:11.123Z,999.90
2022-10-31T08:24:11.142Z,999.90
2022-10-31T08:25:11.098Z,999.90
2022-10-31T08:26:11.075Z,999.90
2022-10-31T08:27:11.074Z,999.90
2022-10-31T08:28:11.063Z,999.90
2022-10-31T08:29:11.057Z,999.90
2022-10-31T08:30:11.028Z,999.90
2022-10-31T08:31:11.017Z,999.90
2022-10-31T08:32:11.003Z,999.90
2022-10-31T08:33:11.012Z,999.90
2022-10-31T08:34:11.051Z,999.90
2022-10-31T08:35:10.980Z,999.90
2022-10-31T08:36:10.978Z,999.90
2022-10-31T08:37:10.951Z,999.90
2022-10-31T08:38:10.988Z,999.90
2022-10-31T08:39:10.952Z,999.90
2022-10-31T08:40:10.902Z,999.90
2022-10-31T08:41:10.929Z,999.90
2022-10-31T08:42:10.899Z,999.90
2022-10-31T08:43:10.936Z,999.90
2022-10-31T08:44:10.864Z,999.90
2022-10-31T08:45:10.848Z,999.90
2022-10-31T08:46:10.852Z,999.90
2022-10-31T08:47:10.837Z,999.90
2022-10-31T08:48:10.806Z,999.90
2022-10-31T08:49:10.871Z,999.90
2022-10-31T08:50:10.810Z,999.90
2022-10-31T08:51:10.800Z,999.90
2022-10-31T08:52:14.464Z,999.90
2022-10-31T08:53:10.781Z,999.90
2022-10-31T08:54:10.783Z,999.90
2022-10-31T08:55:10.741Z,999.90
2022-10-31T08:56:10.731Z,999.90
2022-10-31T08:57:10.765Z,999.90
2022-10-31T08:58:10.720Z,999.90
2022-10-31T08:59:10.779Z,999.90
2022-10-31T09:00:10.677Z,999.90
2022-10-31T09:01:10.780Z,999.90
2022-10-31T09:02:10.733Z,999.90
2022-10-31T09:03:10.662Z,999.90
2022-10-31T09:04:10.673Z,999.90
2022-10-31T09:05:10.623Z,999.90
2022-10-31T09:06:10.662Z,999.90
2022-10-31T09:07:26.076Z,999.90
2022-10-31T09:08:15.941Z,999.90
2022-10-31T09:09:11.606Z,999.90
2022-10-31T09:10:10.632Z,999.90
2022-10-31T09:11:10.577Z,999.90
2022-10-31T09:12:10.571Z,999.90
2022-10-31T09:13:10.593Z,999.90
2022-10-31T09:14:10.529Z,999.90
2022-10-31T09:15:10.513Z,999.90
2022-10-31T09:16:10.516Z,999.90
2022-10-31T09:17:10.492Z,999.90
2022-10-31T09:18:10.483Z,999.90
2022-10-31T09:19:11.678Z,999.90
2022-10-31T09:20:10.490Z,999.90
2022-10-31T09:21:10.449Z,999.90
2022-10-31T09:22:10.456Z,999.90
2022-10-31T09:23:10.434Z,913.40
2022-10-31T09:24:10.455Z,999.90
2022-10-31T09:25:10.396Z,938.80
2022-10-31T09:26:10.372Z,999.90
2022-10-31T09:27:10.370Z,420.40
2022-10-31T09:28:10.350Z,74.00
2022-10-31T09:29:10.412Z,300.10
2022-10-31T09:30:10.350Z,999.90
2022-10-31T09:31:10.344Z,999.90
2022-10-31T09:32:10.331Z,999.90
2022-10-31T09:33:10.316Z,983.80
2022-10-31T09:34:10.324Z,539.20
2022-10-31T09:35:10.297Z,40.50
2022-10-31T09:36:10.291Z,44.90
2022-10-31T09:37:10.269Z,295.30
2022-10-31T09:38:10.277Z,342.70
2022-10-31T09:39:10.292Z,96.90
2022-10-31T09:40:10.224Z,571.20
2022-10-31T09:41:10.238Z,999.90
2022-10-31T09:42:10.216Z,999.90
2022-10-31T09:43:10.241Z,128.90
2022-10-31T09:44:10.240Z,562.00
2022-10-31T09:45:10.197Z,961.00
2022-10-31T09:46:10.165Z,620.10
2022-10-31T09:47:10.171Z,74.60
2022-10-31T09:48:10.145Z,351.70
2022-10-31T09:49:10.197Z,473.50
2022-10-31T09:50:10.131Z,999.90
2022-10-31T09:51:10.112Z,999.90
2022-10-31T09:53:10.091Z,999.90
2022-10-31T09:54:10.116Z,971.80
2022-10-31T09:55:10.074Z,999.90
2022-10-31T09:56:10.043Z,635.80
2022-10-31T09:57:10.054Z,660.20
2022-10-31T09:58:10.024Z,653.20
2022-10-31T09:59:10.043Z,921.90
2022-10-31T10:00:10.022Z,999.90
2022-10-31T10:01:10.158Z,999.90
2022-10-31T10:02:10.150Z,999.90
2022-10-31T10:03:09.990Z,999.90
2022-10-31T10:04:10.014Z,999.90
2022-10-31T10:05:09.964Z,999.90
2022-10-31T10:06:09.957Z,999.90
2022-10-31T10:07:09.936Z,999.90
2022-10-31T10:08:09.940Z,999.90
2022-10-31T10:09:10.014Z,999.90
2022-10-31T10:10:09.909Z,715.60
2022-10-31T10:11:09.890Z,693.40
2022-10-31T10:12:09.866Z,999.90
2022-10-31T10:13:10.159Z,564.80
2022-10-31T10:14:09.920Z,521.10
2022-10-31T10:15:09.848Z,109.20
2022-10-31T10:16:09.889Z,147.80
2022-10-31T10:17:09.836Z,117.40
2022-10-31T10:18:09.828Z,19.30
2022-10-31T10:19:09.837Z,18.30
2022-10-31T10:20:09.814Z,32.10
2022-10-31T10:21:09.773Z,99.80
2022-10-31T10:22:09.785Z,254.30
2022-10-31T10:23:09.749Z,95.50
2022-10-31T10:24:09.777Z,26.50
2022-10-31T10:25:09.735Z,20.80
2022-10-31T10:26:16.920Z,17.40
2022-10-31T10:27:10.716Z,18.90
2022-10-31T10:28:09.728Z,16.60
2022-10-31T10:29:09.714Z,16.10
2022-10-31T10:30:09.672Z,16.30
2022-10-31T10:31:09.671Z,16.50
2022-10-31T10:32:09.649Z,14.90
2022-10-31T10:33:09.622Z,15.90
2022-10-31T10:34:09.662Z,15.10
2022-10-31T10:35:09.605Z,14.90
2022-10-31T10:36:09.641Z,14.60
2022-10-31T10:37:09.594Z,13.00
2022-10-31T10:38:09.607Z,11.60
2022-10-31T10:39:09.624Z,13.40
2022-10-31T10:40:09.580Z,14.70
2022-10-31T10:41:09.543Z,15.00
2022-10-31T10:42:09.570Z,12.90
2022-10-31T10:43:09.537Z,12.30
2022-10-31T10:44:09.566Z,11.60
2022-10-31T10:45:09.507Z,12.00
2022-10-31T10:46:11.733Z,11.50
2022-10-31T10:47:09.502Z,11.40
2022-10-31T10:48:09.468Z,11.00
2022-10-31T10:49:09.499Z,11.50
2022-10-31T10:50:09.451Z,11.30
2022-10-31T10:51:20.308Z,11.20
2022-10-31T10:52:27.066Z,11.00
2022-10-31T10:53:10.415Z,11.40
2022-10-31T10:54:10.694Z,11.50
2022-10-31T10:55:09.387Z,10.70
2022-10-31T10:56:09.419Z,8.90
2022-10-31T10:57:09.379Z,8.40
2022-10-31T10:58:09.370Z,8.50
2022-10-31T10:59:09.416Z,8.30
2022-10-31T11:00:09.336Z,8.50
2022-10-31T11:01:09.456Z,9.20
2022-10-31T11:02:09.319Z,9.60
2022-10-31T11:03:09.309Z,9.00
2022-10-31T11:04:09.303Z,8.80
2022-10-31T11:05:09.317Z,9.20
2022-10-31T11:06:09.282Z,8.80
2022-10-31T11:07:09.263Z,8.20
2022-10-31T11:08:09.244Z,7.80
2022-10-31T11:09:09.215Z,8.80
2022-10-31T11:10:09.256Z,8.10
2022-10-31T11:11:09.230Z,8.10
2022-10-31T11:12:09.208Z,8.10
2022-10-31T11:13:09.231Z,7.80
2022-10-31T11:14:09.201Z,7.30
2022-10-31T11:15:09.214Z,7.30
2022-10-31T11:16:09.162Z,7.20
2022-10-31T11:17:09.145Z,6.80
2022-10-31T11:18:09.144Z,6.90
2022-10-31T11:19:09.134Z,6.60
2022-10-31T11:20:09.155Z,6.90
2022-10-31T11:21:09.120Z,6.80
2022-10-31T11:22:09.143Z,7.70
2022-10-31T11:23:09.498Z,7.90
2022-10-31T11:24:09.071Z,8.00
2022-10-31T11:25:09.099Z,7.90
2022-10-31T11:26:09.049Z,7.60
2022-10-31T11:27:09.032Z,7.90
2022-10-31T11:28:09.032Z,7.50
2022-10-31T11:29:09.023Z,7.50
2022-10-31T11:30:09.066Z,7.70
2022-10-31T11:31:08.993Z,7.20
2022-10-31T11:32:08.983Z,8.20
2022-10-31T11:33:08.968Z,8.20
2022-10-31T11:34:08.970Z,8.20
2022-10-31T11:35:08.946Z,8.20
2022-10-31T11:36:08.962Z,8.00
2022-10-31T11:37:08.924Z,7.90
2022-10-31T11:38:08.929Z,8.30
2022-10-31T11:39:08.905Z,8.30
2022-10-31T11:40:08.884Z,7.90
2022-10-31T11:41:08.909Z,7.90
2022-10-31T11:42:09.197Z,8.20
2022-10-31T11:43:08.843Z,8.40
2022-10-31T11:44:08.846Z,7.80
2022-10-31T11:45:08.825Z,8.10
2022-10-31T11:46:08.856Z,8.40
2022-10-31T11:47:08.831Z,7.90
2022-10-31T11:48:08.808Z,7.80
2022-10-31T11:49:08.779Z,8.20
2022-10-31T11:50:08.787Z,7.80
2022-10-31T11:51:08.810Z,8.00
2022-10-31T11:52:08.766Z,7.90
2022-10-31T11:53:08.766Z,8.00
2022-10-31T11:54:08.770Z,7.60
2022-10-31T11:55:08.732Z,7.90
2022-10-31T11:56:08.758Z,8.10
2022-10-31T11:57:08.704Z,7.70
2022-10-31T11:58:08.726Z,8.00
2022-10-31T11:59:08.696Z,8.20
2022-10-31T12:00:08.694Z,7.50
2022-10-31T12:01:08.787Z,7.80
2022-10-31T12:02:08.722Z,7.60
2022-10-31T12:03:08.653Z,7.40
2022-10-31T12:04:08.632Z,7.20
2022-10-31T12:05:08.633Z,7.50
2022-10-31T12:06:08.658Z,7.20
2022-10-31T12:07:08.648Z,8.00
2022-10-31T12:08:08.601Z,7.20
2022-10-31T12:09:08.557Z,7.70
2022-10-31T12:10:08.568Z,7.70
2022-10-31T12:11:08.584Z,7.30
2022-10-31T12:12:08.562Z,7.10
2022-10-31T12:13:08.523Z,7.50
2022-10-31T12:14:08.527Z,7.90
2022-10-31T12:15:08.515Z,7.70
2022-10-31T12:16:08.537Z,8.00
2022-10-31T12:17:08.480Z,7.10
2022-10-31T12:18:08.482Z,7.60
2022-10-31T12:19:08.441Z,7.50
2022-10-31T12:20:08.442Z,7.40
2022-10-31T12:21:08.462Z,7.20
2022-10-31T12:22:08.431Z,7.40
2022-10-31T12:23:08.400Z,7.10
2022-10-31T12:24:08.404Z,7.50
2022-10-31T12:25:08.385Z,7.20
2022-10-31T12:26:08.416Z,7.10
2022-10-31T12:27:08.359Z,7.40
2022-10-31T12:28:08.366Z,7.30
2022-10-31T12:29:08.351Z,7.60
2022-10-31T12:30:08.333Z,7.40
2022-10-31T12:31:08.336Z,7.70
2022-10-31T12:32:08.308Z,7.30
2022-10-31T12:33:08.322Z,7.90
2022-10-31T12:34:08.292Z,7.70
2022-10-31T12:35:08.291Z,7.70
2022-10-31T12:36:10.966Z,7.30
2022-10-31T12:37:09.245Z,7.30
2022-10-31T12:38:08.249Z,7.50
2022-10-31T12:39:08.234Z,7.40
2022-10-31T12:40:08.235Z,7.20